createdAt,value
2022-10-01T00:01:05.154Z,7.38
2022-10-01T00:03:35.939Z,7.88
2022-10-01T00:06:12.851Z,7.60
2022-10-01T00:08:41.794Z,8.20
2022-10-01T00:11:12.394Z,7.72
2022-10-01T00:13:40.516Z,7.75
2022-10-01T00:16:09.100Z,7.75
2022-10-01T00:18:40.372Z,7.72
2022-10-01T00:21:12.534Z,8.45
2022-10-01T00:23:39.684Z,8.95
2022-10-01T00:26:13.410Z,8.93
2022-10-01T00:28:41.004Z,9.23
2022-10-01T00:31:09.293Z,8.32
2022-10-01T00:33:36.844Z,9.18
2022-10-01T00:36:08.058Z,9.80
2022-10-01T00:38:34.755Z,10.13
2022-10-01T00:41:04.151Z,11.27
2022-10-01T00:43:39.175Z,11.45
2022-10-01T00:46:29.084Z,10.88
2022-10-01T00:49:04.209Z,11.10
2022-10-01T00:51:34.948Z,11.77
2022-10-01T00:54:08.430Z,10.77
2022-10-01T00:56:36.020Z,11.57
2022-10-01T00:59:02.878Z,10.60
2022-10-01T01:01:30.058Z,11.68
2022-10-01T01:03:57.514Z,10.90
2022-10-01T01:06:24.177Z,11.18
2022-10-01T01:08:55.117Z,11.27
2022-10-01T01:11:45.791Z,11.57
2022-10-01T01:14:21.323Z,12.00
2022-10-01T01:17:17.940Z,10.85
2022-10-01T01:20:04.842Z,11.48
2022-10-01T01:22:36.543Z,11.35
2022-10-01T01:25:18.399Z,11.82
2022-10-01T01:28:19.083Z,11.80
2022-10-01T01:30:49.226Z,11.23
2022-10-01T01:33:20.489Z,11.35
2022-10-01T01:35:53.024Z,11.15
2022-10-01T01:38:24.498Z,10.70
2022-10-01T01:40:55.836Z,10.93
2022-10-01T01:43:33.295Z,10.80
2022-10-01T01:46:02.387Z,11.77
2022-10-01T01:48:31.064Z,12.02
2022-10-01T01:51:04.637Z,10.82
2022-10-01T01:53:32.206Z,10.70
2022-10-01T01:56:00.401Z,11.32
2022-10-01T01:58:29.562Z,10.13
2022-10-01T02:00:56.160Z,12.00
2022-10-01T02:03:26.606Z,11.23
2022-10-01T02:06:21.871Z,11.95
2022-10-01T02:08:57.805Z,11.93
2022-10-01T02:11:31.601Z,11.10
2022-10-01T02:14:04.526Z,10.65
2022-10-01T02:19:20.103Z,11.05
2022-10-01T02:21:58.507Z,10.52
2022-10-01T02:24:33.155Z,11.75
2022-10-01T02:27:06.727Z,10.27
2022-10-01T02:29:35.321Z,10.20
2022-10-01T02:32:02.344Z,10.75
2022-10-01T02:34:30.935Z,11.13
2022-10-01T02:37:01.303Z,9.55
2022-10-01T02:39:32.194Z,9.82
2022-10-01T02:42:00.639Z,10.50
2022-10-01T02:44:40.063Z,9.40
2022-10-01T02:47:24.943Z,10.02
2022-10-01T02:49:52.700Z,10.20
2022-10-01T02:52:35.610Z,9.98
2022-10-01T02:55:10.979Z,9.55
2022-10-01T02:57:37.968Z,10.60
2022-10-01T03:00:08.735Z,9.50
2022-10-01T03:02:35.379Z,9.70
2022-10-01T03:05:02.230Z,9.35
2022-10-01T03:07:31.495Z,10.60
2022-10-01T03:09:58.334Z,9.40
2022-10-01T03:12:25.143Z,10.63
2022-10-01T03:14:52.149Z,10.98
2022-10-01T03:17:18.807Z,10.45
2022-10-01T03:19:45.474Z,10.45
2022-10-01T03:22:14.581Z,10.55
2022-10-01T03:24:41.331Z,10.68
2022-10-01T03:27:07.943Z,10.68
2022-10-01T03:29:34.578Z,10.98
2022-10-01T03:32:01.686Z,10.95
2022-10-01T03:34:28.685Z,11.23
2022-10-01T03:36:55.396Z,11.43
2022-10-01T03:39:22.214Z,12.40
2022-10-01T03:41:48.839Z,11.57
2022-10-01T03:44:15.440Z,11.55
2022-10-01T03:46:42.101Z,11.73
2022-10-01T03:49:08.698Z,12.38
2022-10-01T03:51:37.450Z,12.63
2022-10-01T03:54:09.051Z,12.50
2022-10-01T03:56:36.117Z,12.13
2022-10-01T03:59:02.744Z,12.73
2022-10-01T04:01:29.437Z,12.90
2022-10-01T04:03:56.593Z,12.63
2022-10-01T04:06:23.257Z,12.18
2022-10-01T04:08:49.897Z,10.75
2022-10-01T04:11:16.663Z,11.13
2022-10-01T04:13:43.397Z,11.07
2022-10-01T04:16:10.258Z,12.43
2022-10-01T04:18:37.027Z,11.02
2022-10-01T04:21:03.898Z,12.50
2022-10-01T04:23:30.563Z,12.32
2022-10-01T04:26:02.369Z,12.32
2022-10-01T04:28:30.529Z,12.23
2022-10-01T04:31:17.369Z,11.27
2022-10-01T04:33:44.527Z,12.70
2022-10-01T04:36:11.847Z,12.18
2022-10-01T04:38:38.616Z,13.00
2022-10-01T04:41:05.434Z,12.98
2022-10-01T04:43:32.148Z,13.38
2022-10-01T04:45:58.866Z,13.30
2022-10-01T04:48:25.534Z,14.88
2022-10-01T04:50:53.014Z,14.88
2022-10-01T04:53:19.664Z,16.33
2022-10-01T04:55:46.696Z,14.57
2022-10-01T04:58:13.662Z,15.25
2022-10-01T05:00:40.413Z,15.80
2022-10-01T05:03:07.105Z,15.32
2022-10-01T05:05:35.062Z,17.52
2022-10-01T05:08:02.149Z,15.95
2022-10-01T05:10:29.328Z,15.02
2022-10-01T05:12:56.797Z,15.73
2022-10-01T05:15:23.623Z,15.63
2022-10-01T05:17:50.290Z,17.60
2022-10-01T05:20:20.007Z,15.10
2022-10-01T05:22:47.337Z,15.23
2022-10-01T05:25:14.194Z,16.13
2022-10-01T05:27:41.119Z,15.93
2022-10-01T05:30:12.956Z,15.38
2022-10-01T05:32:39.911Z,16.00
2022-10-01T05:35:08.177Z,15.63
2022-10-01T05:37:35.855Z,16.90
2022-10-01T05:40:03.736Z,16.83
2022-10-01T05:42:30.325Z,16.70
2022-10-01T05:44:56.973Z,16.88
2022-10-01T05:47:23.786Z,16.48
2022-10-01T05:49:50.492Z,16.27
2022-10-01T05:52:17.226Z,17.40
2022-10-01T05:54:43.833Z,17.73
2022-10-01T05:57:10.915Z,18.33
2022-10-01T05:59:37.490Z,18.02
2022-10-01T06:02:04.723Z,18.60
2022-10-01T06:04:31.537Z,16.33
2022-10-01T06:06:58.267Z,19.27
2022-10-01T06:09:24.902Z,17.33
2022-10-01T06:11:51.559Z,18.70
2022-10-01T06:14:18.445Z,19.15
2022-10-01T06:16:45.121Z,18.08
2022-10-01T06:19:11.854Z,18.23
2022-10-01T06:21:38.484Z,18.98
2022-10-01T06:24:05.786Z,18.58
2022-10-01T06:26:32.465Z,17.67
2022-10-01T06:28:59.124Z,17.00
2022-10-01T06:31:25.883Z,16.67
2022-10-01T06:33:52.597Z,17.58
2022-10-01T06:36:19.266Z,18.70
2022-10-01T06:38:48.629Z,17.88
2022-10-01T06:41:15.372Z,17.33
2022-10-01T06:43:42.067Z,17.67
2022-10-01T06:46:08.882Z,16.75
2022-10-01T06:48:36.799Z,15.35
2022-10-01T06:51:04.541Z,16.25
2022-10-01T06:53:32.230Z,15.95
2022-10-01T06:56:04.770Z,14.90
2022-10-01T06:58:31.570Z,16.08
2022-10-01T07:01:03.037Z,14.85
2022-10-01T07:03:31.117Z,15.70
2022-10-01T07:06:02.902Z,15.45
2022-10-01T07:08:30.111Z,15.85
2022-10-01T07:11:02.548Z,16.45
2022-10-01T07:13:30.222Z,15.90
2022-10-01T07:15:57.001Z,15.93
2022-10-01T07:18:23.777Z,16.42
2022-10-01T07:20:50.752Z,17.42
2022-10-01T07:23:17.703Z,17.67
2022-10-01T07:25:45.025Z,17.75
2022-10-01T07:28:17.899Z,17.38
2022-10-01T07:31:05.058Z,16.63
2022-10-01T07:33:31.767Z,16.80
2022-10-01T07:36:03.848Z,16.60
2022-10-01T07:38:30.768Z,17.30
2022-10-01T07:40:58.984Z,16.92
2022-10-01T07:43:25.912Z,17.33
2022-10-01T07:45:55.183Z,17.10
2022-10-01T07:48:22.009Z,16.52
2022-10-01T07:50:48.668Z,16.92
2022-10-01T07:53:15.830Z,17.15
2022-10-01T07:55:43.861Z,18.65
2022-10-01T07:58:11.967Z,19.05
2022-10-01T08:00:39.297Z,18.10
2022-10-01T08:03:06.237Z,17.27
2022-10-01T08:05:35.007Z,16.38
2022-10-01T08:08:07.317Z,17.60
2022-10-01T08:10:37.699Z,18.60
2022-10-01T08:13:14.469Z,18.85
2022-10-01T08:15:53.492Z,18.83
2022-10-01T08:18:23.707Z,17.75
2022-10-01T08:20:50.723Z,20.23
2022-10-01T08:23:17.384Z,20.27
2022-10-01T08:25:44.776Z,21.00
2022-10-01T08:28:12.506Z,18.60
2022-10-01T08:30:41.680Z,17.33
2022-10-01T08:33:11.907Z,16.10
2022-10-01T08:35:40.623Z,17.60
2022-10-01T08:38:07.762Z,17.88
2022-10-01T08:40:38.107Z,18.70
2022-10-01T08:43:07.542Z,18.02
2022-10-01T08:45:49.447Z,16.33
2022-10-01T08:48:35.124Z,16.17
2022-10-01T08:51:05.354Z,16.45
2022-10-01T08:53:38.478Z,16.20
2022-10-01T08:56:13.110Z,14.25
2022-10-01T08:58:45.223Z,13.80
2022-10-01T09:01:12.267Z,14.63
2022-10-01T09:03:42.099Z,15.02
2022-10-01T09:06:38.563Z,14.02
2022-10-01T09:09:46.500Z,14.32
2022-10-01T09:12:34.079Z,13.70
2022-10-01T09:15:40.593Z,13.23
2022-10-01T09:18:33.415Z,12.05
2022-10-01T09:21:00.442Z,12.77
2022-10-01T09:23:30.137Z,11.55
2022-10-01T09:25:59.609Z,10.80
2022-10-01T09:28:31.958Z,7.97
2022-10-01T09:31:21.486Z,9.40
2022-10-01T09:33:58.348Z,11.40
2022-10-01T09:36:43.704Z,12.02
2022-10-01T09:39:32.436Z,11.68
2022-10-01T09:41:59.836Z,12.90
2022-10-01T09:44:32.351Z,11.52
2022-10-01T09:49:36.296Z,10.85
2022-10-01T09:52:10.646Z,11.48
2022-10-01T09:54:43.332Z,11.93
2022-10-01T09:57:19.814Z,12.35
2022-10-01T09:59:57.193Z,11.40
2022-10-01T10:02:32.214Z,11.00
2022-10-01T10:05:04.983Z,10.13
2022-10-01T10:07:35.289Z,10.60
2022-10-01T10:10:26.082Z,9.48
2022-10-01T10:13:23.851Z,7.93
2022-10-01T10:15:58.902Z,7.97
2022-10-01T10:18:31.117Z,7.40
2022-10-01T10:20:59.318Z,6.90
2022-10-01T10:23:26.798Z,6.10
2022-10-01T10:26:05.165Z,5.75
2022-10-01T10:28:44.237Z,5.43
2022-10-01T10:31:24.188Z,5.60
2022-10-01T10:33:51.232Z,5.82
2022-10-01T10:36:22.827Z,5.50
2022-10-01T10:38:53.519Z,6.43
2022-10-01T10:41:26.534Z,6.10
2022-10-01T10:44:00.588Z,6.35
2022-10-01T10:46:35.753Z,6.68
2022-10-01T10:49:18.490Z,5.82
2022-10-01T10:51:56.393Z,6.35
2022-10-01T10:54:28.023Z,6.38
2022-10-01T10:57:03.798Z,5.73
2022-10-01T10:59:32.536Z,6.53
2022-10-01T11:02:02.262Z,6.13
2022-10-01T11:04:42.116Z,5.57
2022-10-01T11:07:10.602Z,5.97
2022-10-01T11:10:06.603Z,5.53
2022-10-01T11:12:56.422Z,5.50
2022-10-01T11:15:32.028Z,5.50
2022-10-01T11:18:16.552Z,4.95
2022-10-01T11:20:57.553Z,4.80
2022-10-01T11:23:41.458Z,4.88
2022-10-01T11:26:50.644Z,4.68
2022-10-01T11:29:52.985Z,3.90
2022-10-01T11:32:31.223Z,3.95
2022-10-01T11:35:18.634Z,4.40
2022-10-01T11:37:54.336Z,3.88
2022-10-01T11:40:24.924Z,3.95
2022-10-01T11:42:57.608Z,4.68
2022-10-01T11:45:32.048Z,4.10
2022-10-01T11:48:12.634Z,3.97
2022-10-01T11:50:46.686Z,4.15
2022-10-01T11:53:30.996Z,3.53
2022-10-01T11:56:20.805Z,3.35
2022-10-01T11:58:54.602Z,3.53
2022-10-01T12:01:23.934Z,2.97
2022-10-01T12:03:53.142Z,2.90
2022-10-01T12:06:49.462Z,2.85
2022-10-01T12:09:32.804Z,2.75
2022-10-01T12:12:03.738Z,3.20
2022-10-01T12:14:36.963Z,2.90
2022-10-01T12:17:26.419Z,3.00
2022-10-01T12:19:56.384Z,3.00
2022-10-01T12:22:25.667Z,3.38
2022-10-01T12:24:53.670Z,2.80
2022-10-01T12:27:37.058Z,3.10
2022-10-01T12:30:32.199Z,2.42
2022-10-01T12:33:27.903Z,2.63
2022-10-01T12:36:20.829Z,2.95
2022-10-01T12:39:18.836Z,2.88
2022-10-01T12:42:04.421Z,3.33
2022-10-01T12:45:00.294Z,2.47
2022-10-01T12:47:42.944Z,2.90
2022-10-01T12:50:31.129Z,2.60
2022-10-01T12:53:22.477Z,2.95
2022-10-01T12:56:12.887Z,2.78
2022-10-01T12:59:06.470Z,2.42
2022-10-01T13:01:52.736Z,2.75
2022-10-01T13:04:51.018Z,2.80
2022-10-01T13:07:42.690Z,2.80
2022-10-01T13:10:43.223Z,3.00
2022-10-01T13:13:14.598Z,3.05
2022-10-01T13:15:47.153Z,2.58
2022-10-01T13:18:27.067Z,2.92
2022-10-01T13:21:05.798Z,3.03
2022-10-01T13:23:39.359Z,2.65
2022-10-01T13:26:34.222Z,2.65
2022-10-01T13:29:03.930Z,2.70
2022-10-01T13:31:37.301Z,2.80
2022-10-01T13:34:24.496Z,3.10
2022-10-01T13:36:51.439Z,3.38
2022-10-01T13:39:24.036Z,3.63
2022-10-01T13:41:58.483Z,2.63
2022-10-01T13:44:34.512Z,3.20
2022-10-01T13:47:07.121Z,3.53
2022-10-01T13:49:36.473Z,3.05
2022-10-01T13:52:04.219Z,2.55
2022-10-01T13:54:39.898Z,3.13
2022-10-01T13:57:11.137Z,3.33
2022-10-01T13:59:38.178Z,2.80
2022-10-01T14:02:29.394Z,3.47
2022-10-01T14:05:03.869Z,3.15
2022-10-01T14:07:37.723Z,3.13
2022-10-01T14:10:05.336Z,2.80
2022-10-01T14:12:52.921Z,2.90
2022-10-01T14:16:12.559Z,3.00
2022-10-01T14:18:42.936Z,3.25
2022-10-01T14:21:51.144Z,2.92
2022-10-01T14:24:39.147Z,2.70
2022-10-01T14:27:11.286Z,3.17
2022-10-01T14:30:00.286Z,3.40
2022-10-01T14:32:53.922Z,3.05
2022-10-01T14:35:23.516Z,3.05
2022-10-01T14:37:56.938Z,3.25
2022-10-01T14:40:24.442Z,3.08
2022-10-01T14:43:01.948Z,2.95
2022-10-01T14:45:29.305Z,2.95
2022-10-01T14:48:06.830Z,2.72
2022-10-01T14:50:36.958Z,2.67
2022-10-01T14:53:04.230Z,2.70
2022-10-01T14:55:31.409Z,3.15
2022-10-01T14:57:58.763Z,2.88
2022-10-01T15:00:30.482Z,3.50
2022-10-01T15:03:18.139Z,3.60
2022-10-01T15:05:47.437Z,3.90
2022-10-01T15:08:18.912Z,4.50
2022-10-01T15:11:13.175Z,4.32
2022-10-01T15:13:42.963Z,4.30
2022-10-01T15:16:21.783Z,4.50
2022-10-01T15:18:53.448Z,4.30
2022-10-01T15:21:31.627Z,4.43
2022-10-01T15:23:59.313Z,4.63
2022-10-01T15:26:31.106Z,4.90
2022-10-01T15:29:16.594Z,4.95
2022-10-01T15:31:45.949Z,5.25
2022-10-01T15:34:15.981Z,4.78
2022-10-01T15:36:43.880Z,5.22
2022-10-01T15:39:21.712Z,5.63
2022-10-01T15:41:53.177Z,5.50
2022-10-01T15:44:46.336Z,5.78
2022-10-01T15:47:15.860Z,6.00
2022-10-01T15:50:01.775Z,5.15
2022-10-01T15:52:51.024Z,4.72
2022-10-01T15:55:40.174Z,4.80
2022-10-01T15:58:20.115Z,4.57
2022-10-01T16:00:47.569Z,4.85
2022-10-01T16:03:23.384Z,5.00
2022-10-01T16:05:54.951Z,4.95
2022-10-01T16:08:25.175Z,4.90
2022-10-01T16:11:13.815Z,5.50
2022-10-01T16:13:44.765Z,4.93
2022-10-01T16:16:14.230Z,4.90
2022-10-01T16:18:42.231Z,5.13
2022-10-01T16:21:11.151Z,5.28
2022-10-01T16:23:48.021Z,5.43
2022-10-01T16:26:27.525Z,7.18
2022-10-01T16:29:00.143Z,6.05
2022-10-01T16:33:53.707Z,6.40
2022-10-01T16:36:21.795Z,6.03
2022-10-01T16:38:48.479Z,6.07
2022-10-01T16:41:22.361Z,6.35
2022-10-01T16:43:50.609Z,5.88
2022-10-01T16:46:17.691Z,6.38
2022-10-01T16:48:47.769Z,6.30
2022-10-01T16:51:14.703Z,6.80
2022-10-01T16:53:42.958Z,7.38
2022-10-01T16:56:10.870Z,7.57
2022-10-01T16:58:40.324Z,7.95
2022-10-01T17:01:08.733Z,8.82
2022-10-01T17:03:36.310Z,8.20
2022-10-01T17:06:03.630Z,8.50
2022-10-01T17:08:30.350Z,8.05
2022-10-01T17:11:00.427Z,8.68
2022-10-01T17:13:35.621Z,8.45
2022-10-01T17:16:04.638Z,7.93
2022-10-01T17:18:31.363Z,13.32
2022-10-01T17:20:59.468Z,22.42
2022-10-01T17:23:26.063Z,12.00
2022-10-01T17:25:52.906Z,8.70
2022-10-01T17:28:20.610Z,8.23
2022-10-01T17:30:49.170Z,8.30
2022-10-01T17:33:19.154Z,9.38
2022-10-01T17:35:51.743Z,8.68
2022-10-01T17:38:19.415Z,9.38
2022-10-01T17:40:46.724Z,9.07
2022-10-01T17:43:14.895Z,17.05
2022-10-01T17:45:42.565Z,23.60
2022-10-01T17:48:10.191Z,67.25
2022-10-01T17:50:43.743Z,42.33
2022-10-01T17:53:14.921Z,14.85
2022-10-01T17:55:42.914Z,11.25
2022-10-01T17:58:09.953Z,11.55
2022-10-01T18:00:36.951Z,11.05
2022-10-01T18:03:04.067Z,11.00
2022-10-01T18:05:30.778Z,10.77
2022-10-01T18:07:57.445Z,9.85
2022-10-01T18:10:24.986Z,10.43
2022-10-01T18:12:52.095Z,9.77
2022-10-01T18:15:20.845Z,10.18
2022-10-01T18:17:52.020Z,10.57
2022-10-01T18:20:23.123Z,10.13
2022-10-01T18:22:50.493Z,10.70
2022-10-01T18:25:19.208Z,10.32
2022-10-01T18:27:49.980Z,9.32
2022-10-01T18:30:17.816Z,10.13
2022-10-01T18:32:49.518Z,9.75
2022-10-01T18:35:22.731Z,9.98
2022-10-01T18:37:55.779Z,10.18
2022-10-01T18:40:34.684Z,10.98
2022-10-01T18:43:17.567Z,12.13
2022-10-01T18:45:56.529Z,13.68
2022-10-01T18:48:45.004Z,13.70
2022-10-01T18:51:51.864Z,15.23
2022-10-01T18:54:42.769Z,14.98
2022-10-01T18:57:37.312Z,14.73
2022-10-01T19:00:12.155Z,14.23
2022-10-01T19:03:05.641Z,12.85
2022-10-01T19:05:57.248Z,13.35
2022-10-01T19:08:46.631Z,13.95
2022-10-01T19:11:19.086Z,13.93
2022-10-01T19:14:04.130Z,14.73
2022-10-01T19:17:15.271Z,15.38
2022-10-01T19:20:12.656Z,15.40
2022-10-01T19:22:58.824Z,15.30
2022-10-01T19:25:40.962Z,16.00
2022-10-01T19:28:51.131Z,15.13
2022-10-01T19:31:41.630Z,19.48
2022-10-01T19:34:17.406Z,17.15
2022-10-01T19:36:59.887Z,20.40
2022-10-01T19:39:32.048Z,17.17
2022-10-01T19:42:03.652Z,16.33
2022-10-01T19:44:48.788Z,15.70
2022-10-01T19:47:27.840Z,14.95
2022-10-01T19:49:59.563Z,14.27
2022-10-01T19:52:30.481Z,13.95
2022-10-01T19:55:01.590Z,12.45
2022-10-01T19:57:29.669Z,10.98
2022-10-01T20:00:10.274Z,11.15
2022-10-01T20:02:47.031Z,10.82
2022-10-01T20:05:20.390Z,9.57
2022-10-01T20:07:50.930Z,9.98
2022-10-01T20:10:39.203Z,10.05
2022-10-01T20:13:22.783Z,10.43
2022-10-01T20:16:40.707Z,10.45
2022-10-01T20:19:16.136Z,9.93
2022-10-01T20:21:58.232Z,11.10
2022-10-01T20:24:33.945Z,10.60
2022-10-01T20:27:11.485Z,11.73
2022-10-01T20:30:01.355Z,10.77
2022-10-01T20:32:42.267Z,12.43
2022-10-01T20:35:22.834Z,15.02
2022-10-01T20:38:06.889Z,25.02
2022-10-01T20:40:43.078Z,14.43
2022-10-01T20:43:33.605Z,13.40
2022-10-01T20:46:26.580Z,13.00
2022-10-01T20:49:01.336Z,12.75
2022-10-01T20:51:37.245Z,12.65
2022-10-01T20:54:10.893Z,12.02
2022-10-01T20:56:43.285Z,12.38
2022-10-01T20:59:34.191Z,12.55
2022-10-01T21:02:39.350Z,11.32
2022-10-01T21:05:15.974Z,10.57
2022-10-01T21:07:52.609Z,8.63
2022-10-01T21:10:35.555Z,7.32
2022-10-01T21:16:02.273Z,6.55
2022-10-01T21:18:56.611Z,6.70
2022-10-01T21:21:36.853Z,5.70
2022-10-01T21:24:27.019Z,6.13
2022-10-01T21:27:15.430Z,5.28
2022-10-01T21:29:50.987Z,10.52
2022-10-01T21:33:02.637Z,8.18
2022-10-01T21:36:02.640Z,5.75
2022-10-01T21:39:05.863Z,5.47
2022-10-01T21:41:53.651Z,6.53
2022-10-01T21:44:32.348Z,6.60
2022-10-01T21:47:47.862Z,6.40
2022-10-01T21:50:42.639Z,18.25
2022-10-01T21:53:30.699Z,13.45
2022-10-01T21:56:37.282Z,9.88
2022-10-01T21:59:27.096Z,7.03
2022-10-01T22:02:04.540Z,7.38
2022-10-01T22:04:55.581Z,16.25
2022-10-01T22:07:36.470Z,13.82
2022-10-01T22:10:15.695Z,10.32
2022-10-01T22:12:47.330Z,7.72
2022-10-01T22:15:25.056Z,7.90
2022-10-01T22:17:53.848Z,7.80
2022-10-01T22:20:24.474Z,12.23
2022-10-01T22:22:56.531Z,10.82
2022-10-01T22:25:25.079Z,13.98
2022-10-01T22:27:57.796Z,10.60
2022-10-01T22:33:14.479Z,13.30
2022-10-01T22:36:16.795Z,8.30
2022-10-01T22:39:04.570Z,7.30
2022-10-01T22:41:36.014Z,7.07
2022-10-01T22:44:12.694Z,7.28
2022-10-01T22:46:45.270Z,7.70
2022-10-01T22:49:31.006Z,13.73
2022-10-01T22:52:46.156Z,14.07
2022-10-01T22:55:30.932Z,8.68
2022-10-01T22:58:32.547Z,7.03
2022-10-01T23:01:11.178Z,6.40
2022-10-01T23:03:50.197Z,6.53
2022-10-01T23:06:33.425Z,7.40
2022-10-01T23:09:39.610Z,7.05
2022-10-01T23:12:18.082Z,6.57
2022-10-01T23:15:04.024Z,7.05
2022-10-01T23:17:52.602Z,8.63
2022-10-01T23:20:30.243Z,16.20
2022-10-01T23:23:02.607Z,10.43
2022-10-01T23:25:37.994Z,11.00
2022-10-01T23:28:14.772Z,7.32
2022-10-01T23:31:23.013Z,6.93
2022-10-01T23:34:01.560Z,5.75
2022-10-01T23:36:35.052Z,5.45
2022-10-01T23:39:35.570Z,5.28
2022-10-01T23:42:28.256Z,5.00
2022-10-01T23:45:22.660Z,4.63
2022-10-01T23:48:04.259Z,4.63
2022-10-01T23:50:41.461Z,4.50
2022-10-01T23:53:32.665Z,4.50
2022-10-01T23:56:22.875Z,4.35
2022-10-01T23:59:13.147Z,4.60
